createdAt,value
2022-09-01T00:00:30.683Z,1.50
2022-09-01T00:02:59.110Z,1.25
2022-09-01T00:05:28.594Z,1.30
2022-09-01T00:07:56.692Z,1.40
2022-09-01T00:10:24.964Z,1.25
2022-09-01T00:12:53.344Z,1.52
2022-09-01T00:15:21.425Z,1.30
2022-09-01T00:17:49.741Z,1.50
2022-09-01T00:20:20.513Z,1.35
2022-09-01T00:22:50.759Z,1.33
2022-09-01T00:25:20.684Z,1.42
2022-09-01T00:27:49.737Z,1.17
2022-09-01T00:30:18.324Z,1.40
2022-09-01T00:32:46.891Z,1.27
2022-09-01T00:35:16.253Z,1.42
2022-09-01T00:37:44.818Z,1.30
2022-09-01T00:40:17.370Z,1.40
2022-09-01T00:42:46.172Z,1.40
2022-09-01T00:45:14.456Z,1.20
2022-09-01T00:47:43.742Z,1.30
2022-09-01T00:50:15.940Z,1.45
2022-09-01T00:52:51.853Z,1.20
2022-09-01T00:55:26.904Z,1.30
2022-09-01T00:57:55.123Z,1.30
2022-09-01T01:00:27.601Z,1.50
2022-09-01T01:02:56.851Z,1.30
2022-09-01T01:05:33.064Z,1.37
2022-09-01T01:08:04.287Z,1.50
2022-09-01T01:10:38.956Z,1.80
2022-09-01T01:13:15.551Z,1.50
2022-09-01T01:15:44.874Z,1.43
2022-09-01T01:18:13.805Z,1.37
2022-09-01T01:21:00.945Z,1.63
2022-09-01T01:23:39.012Z,1.50
2022-09-01T01:26:11.431Z,1.60
2022-09-01T01:28:44.152Z,1.70
2022-09-01T01:31:16.365Z,1.40
2022-09-01T01:33:47.734Z,1.33
2022-09-01T01:36:21.548Z,1.63
2022-09-01T01:38:51.024Z,1.60
2022-09-01T01:41:22.002Z,1.50
2022-09-01T01:43:51.025Z,1.60
2022-09-01T01:46:20.718Z,1.40
2022-09-01T01:48:52.428Z,1.70
2022-09-01T01:51:24.987Z,1.50
2022-09-01T01:53:53.596Z,1.67
2022-09-01T01:56:25.661Z,1.40
2022-09-01T01:58:54.689Z,1.60
2022-09-01T02:01:24.387Z,1.77
2022-09-01T02:03:54.781Z,1.57
2022-09-01T02:06:25.590Z,1.57
2022-09-01T02:08:56.627Z,1.60
2022-09-01T02:11:26.635Z,1.75
2022-09-01T02:13:56.316Z,1.40
2022-09-01T02:16:26.112Z,1.60
2022-09-01T02:18:54.460Z,1.70
2022-09-01T02:21:27.121Z,1.80
2022-09-01T02:24:00.345Z,1.60
2022-09-01T02:26:33.320Z,1.77
2022-09-01T02:29:05.137Z,1.70
2022-09-01T02:31:35.494Z,1.53
2022-09-01T02:34:04.574Z,1.23
2022-09-01T02:36:35.101Z,1.70
2022-09-01T02:39:03.206Z,1.60
2022-09-01T02:41:34.614Z,1.80
2022-09-01T02:44:04.124Z,1.70
2022-09-01T02:46:32.299Z,1.73
2022-09-01T02:49:01.575Z,1.80
2022-09-01T02:51:31.758Z,1.77
2022-09-01T02:54:00.595Z,1.80
2022-09-01T02:56:28.849Z,1.60
2022-09-01T02:59:01.715Z,1.70
2022-09-01T03:01:34.021Z,2.10
2022-09-01T03:04:05.635Z,1.73
2022-09-01T03:06:36.440Z,2.03
2022-09-01T03:09:08.585Z,1.70
2022-09-01T03:11:42.961Z,1.90
2022-09-01T03:14:13.201Z,1.63
2022-09-01T03:16:42.293Z,1.80
2022-09-01T03:19:12.097Z,1.97
2022-09-01T03:21:43.317Z,1.80
2022-09-01T03:24:15.154Z,1.90
2022-09-01T03:26:45.493Z,1.83
2022-09-01T03:29:20.078Z,1.80
2022-09-01T03:31:48.530Z,1.80
2022-09-01T03:34:20.721Z,1.50
2022-09-01T03:36:51.095Z,1.90
2022-09-01T03:39:20.047Z,1.90
2022-09-01T03:41:48.419Z,1.90
2022-09-01T03:44:18.056Z,2.10
2022-09-01T03:46:46.697Z,1.80
2022-09-01T03:49:15.511Z,1.90
2022-09-01T03:51:45.011Z,2.00
2022-09-01T03:54:14.296Z,1.77
2022-09-01T03:56:43.799Z,1.90
2022-09-01T03:59:16.761Z,1.73
2022-09-01T04:01:47.577Z,1.90
2022-09-01T04:04:16.617Z,2.10
2022-09-01T04:06:46.760Z,2.10
2022-09-01T04:09:15.429Z,2.00
2022-09-01T04:11:46.257Z,2.00
2022-09-01T04:14:15.275Z,2.20
2022-09-01T04:17:03.904Z,2.40
2022-09-01T04:19:38.444Z,2.00
2022-09-01T04:22:13.430Z,2.07
2022-09-01T04:24:45.960Z,2.37
2022-09-01T04:27:18.038Z,2.23
2022-09-01T04:29:46.775Z,2.20
2022-09-01T04:32:16.961Z,1.80
2022-09-01T04:34:45.047Z,2.03
2022-09-01T04:37:18.182Z,1.93
2022-09-01T04:39:55.747Z,2.00
2022-09-01T04:42:29.063Z,2.23
2022-09-01T04:44:59.908Z,2.30
2022-09-01T04:47:36.298Z,1.97
2022-09-01T04:50:14.175Z,1.90
2022-09-01T04:52:45.771Z,2.03
2022-09-01T04:55:18.403Z,2.10
2022-09-01T04:57:49.528Z,2.10
2022-09-01T05:00:24.374Z,2.13
2022-09-01T05:03:03.387Z,2.30
2022-09-01T05:05:42.462Z,2.37
2022-09-01T05:08:14.494Z,2.00
2022-09-01T05:10:56.556Z,1.90
2022-09-01T05:13:27.316Z,2.00
2022-09-01T05:16:04.082Z,2.00
2022-09-01T05:18:34.141Z,1.90
2022-09-01T05:21:11.125Z,2.10
2022-09-01T05:23:40.641Z,1.90
2022-09-01T05:26:16.913Z,1.90
2022-09-01T05:28:45.668Z,2.00
2022-09-01T05:31:14.005Z,2.17
2022-09-01T05:33:46.016Z,2.13
2022-09-01T05:36:17.880Z,2.27
2022-09-01T05:38:48.046Z,2.10
2022-09-01T05:41:20.921Z,1.90
2022-09-01T05:43:57.782Z,1.70
2022-09-01T05:46:30.016Z,2.30
2022-09-01T05:48:59.735Z,2.10
2022-09-01T05:51:44.372Z,2.20
2022-09-01T05:54:15.172Z,2.10
2022-09-01T05:56:44.888Z,2.40
2022-09-01T05:59:23.071Z,1.87
2022-09-01T06:01:53.186Z,1.83
2022-09-01T06:04:25.379Z,1.77
2022-09-01T06:07:05.776Z,1.63
2022-09-01T06:09:39.394Z,1.88
2022-09-01T06:12:09.133Z,1.58
2022-09-01T06:14:37.398Z,2.35
2022-09-01T06:17:06.662Z,1.60
2022-09-01T06:19:37.383Z,1.90
2022-09-01T06:22:07.988Z,1.83
2022-09-01T06:24:36.824Z,1.80
2022-09-01T06:27:09.746Z,1.85
2022-09-01T06:29:39.712Z,1.52
2022-09-01T06:32:10.466Z,1.92
2022-09-01T06:34:44.535Z,1.42
2022-09-01T06:37:13.248Z,1.60
2022-09-01T06:39:41.570Z,1.42
2022-09-01T06:42:13.748Z,1.63
2022-09-01T06:44:41.867Z,1.90
2022-09-01T06:47:10.894Z,1.60
2022-09-01T06:49:41.087Z,1.80
2022-09-01T06:52:09.565Z,1.40
2022-09-01T06:54:39.568Z,1.50
2022-09-01T06:59:56.176Z,1.52
2022-09-01T07:02:27.189Z,1.60
2022-09-01T07:04:57.219Z,1.80
2022-09-01T07:10:21.212Z,1.52
2022-09-01T07:13:06.623Z,1.35
2022-09-01T07:18:27.686Z,1.60
2022-09-01T07:24:07.835Z,1.40
2022-09-01T07:26:36.167Z,1.60
2022-09-01T07:29:07.371Z,1.45
2022-09-01T07:34:46.272Z,1.70
2022-09-01T07:38:47.344Z,1.45
2022-09-01T07:45:31.388Z,1.70
2022-09-01T07:48:06.523Z,1.42
2022-09-01T07:51:34.597Z,1.40
2022-09-01T07:53:31.431Z,1.60
2022-09-01T07:56:02.437Z,1.80
2022-09-01T07:58:31.424Z,1.60
2022-09-01T08:01:02.634Z,1.67
2022-09-01T08:03:32.014Z,1.70
2022-09-01T08:06:06.976Z,1.50
2022-09-01T08:08:40.559Z,1.90
2022-09-01T08:11:09.394Z,1.30
2022-09-01T08:13:41.910Z,1.40
2022-09-01T08:16:19.285Z,1.42
2022-09-01T08:18:49.981Z,1.58
2022-09-01T08:21:22.132Z,1.50
2022-09-01T08:23:53.733Z,1.50
2022-09-01T08:26:25.076Z,1.70
2022-09-01T08:28:55.488Z,1.95
2022-09-01T08:31:30.526Z,1.70
2022-09-01T08:34:00.014Z,1.80
2022-09-01T08:36:28.106Z,1.60
2022-09-01T08:38:57.567Z,1.80
2022-09-01T08:41:46.415Z,1.92
2022-09-01T08:44:32.592Z,1.90
2022-09-01T08:47:07.031Z,1.75
2022-09-01T08:49:43.306Z,2.03
2022-09-01T08:52:25.510Z,1.92
2022-09-01T08:55:02.626Z,1.80
2022-09-01T08:57:36.151Z,1.60
2022-09-01T09:00:08.312Z,1.50
2022-09-01T09:02:52.282Z,1.80
2022-09-01T09:05:34.034Z,1.85
2022-09-01T09:08:56.729Z,1.50
2022-09-01T09:12:00.018Z,1.92
2022-09-01T09:14:51.796Z,1.80
2022-09-01T09:17:28.274Z,1.80
2022-09-01T09:19:56.420Z,1.80
2022-09-01T09:22:24.528Z,1.80
2022-09-01T09:25:00.259Z,1.60
2022-09-01T09:27:33.918Z,1.90
2022-09-01T09:30:09.324Z,1.90
2022-09-01T09:33:24.969Z,2.17
2022-09-01T09:35:42.981Z,1.95
2022-09-01T09:38:28.830Z,1.85
2022-09-01T09:41:17.145Z,1.63
2022-09-01T09:44:00.106Z,1.40
2022-09-01T09:46:37.652Z,1.42
2022-09-01T09:49:34.242Z,1.40
2022-09-01T09:52:18.329Z,1.20
2022-09-01T09:55:06.852Z,1.45
2022-09-01T09:57:42.192Z,1.20
2022-09-01T10:00:24.519Z,1.20
2022-09-01T10:03:07.888Z,1.40
2022-09-01T10:05:43.201Z,1.20
2022-09-01T10:08:16.514Z,1.15
2022-09-01T10:10:58.193Z,1.20
2022-09-01T10:13:31.301Z,1.25
2022-09-01T10:16:09.065Z,1.60
2022-09-01T10:18:44.839Z,1.20
2022-09-01T10:21:18.452Z,1.48
2022-09-01T10:23:46.593Z,1.20
2022-09-01T10:26:21.519Z,1.33
2022-09-01T10:28:59.946Z,1.30
2022-09-01T10:31:32.406Z,1.30
2022-09-01T10:34:05.900Z,1.17
2022-09-01T10:36:37.829Z,1.17
2022-09-01T10:39:12.294Z,1.33
2022-09-01T10:42:00.574Z,1.23
2022-09-01T10:44:33.981Z,1.10
2022-09-01T10:47:14.497Z,1.20
2022-09-01T10:50:07.461Z,1.20
2022-09-01T10:53:04.703Z,1.00
2022-09-01T10:55:48.306Z,1.17
2022-09-01T11:02:24.975Z,0.90
2022-09-01T11:05:17.996Z,1.10
2022-09-01T11:08:15.832Z,1.05
2022-09-01T11:11:00.290Z,0.90
2022-09-01T11:13:49.564Z,0.95
2022-09-01T11:16:53.018Z,1.00
2022-09-01T11:19:44.458Z,0.80
2022-09-01T11:22:45.139Z,0.90
2022-09-01T11:25:43.798Z,1.08
2022-09-01T11:28:41.829Z,0.77
2022-09-01T11:31:30.882Z,0.93
2022-09-01T11:34:23.344Z,0.60
2022-09-01T11:37:01.308Z,1.00
2022-09-01T11:39:42.256Z,0.93
2022-09-01T11:42:22.524Z,0.90
2022-09-01T11:44:58.704Z,0.93
2022-09-01T11:47:33.205Z,0.90
2022-09-01T11:50:05.924Z,1.02
2022-09-01T11:52:41.388Z,0.85
2022-09-01T11:55:11.757Z,1.00
2022-09-01T11:57:42.051Z,0.80
2022-09-01T12:00:15.089Z,0.80
2022-09-01T12:02:49.085Z,0.82
2022-09-01T12:05:32.043Z,0.80
2022-09-01T12:08:04.823Z,0.80
2022-09-01T12:10:38.332Z,0.80
2022-09-01T12:13:10.052Z,0.82
2022-09-01T12:16:00.626Z,0.80
2022-09-01T12:18:35.133Z,0.93
2022-09-01T12:21:07.878Z,1.20
2022-09-01T12:23:43.009Z,0.88
2022-09-01T12:26:15.406Z,1.10
2022-09-01T12:28:44.468Z,1.17
2022-09-01T12:31:17.989Z,0.90
2022-09-01T12:33:47.725Z,0.90
2022-09-01T12:36:26.467Z,0.70
2022-09-01T12:38:58.267Z,0.90
2022-09-01T12:41:35.447Z,0.73
2022-09-01T12:44:30.499Z,1.60
2022-09-01T12:47:02.724Z,1.00
2022-09-01T12:49:47.959Z,0.88
2022-09-01T12:52:28.550Z,0.80
2022-09-01T12:58:07.974Z,0.80
2022-09-01T13:00:39.521Z,0.88
2022-09-01T13:03:14.488Z,0.93
2022-09-01T13:05:44.376Z,0.63
2022-09-01T13:08:18.306Z,0.68
2022-09-01T13:10:52.997Z,0.80
2022-09-01T13:13:24.052Z,0.73
2022-09-01T13:15:56.742Z,0.70
2022-09-01T13:18:27.548Z,0.80
2022-09-01T13:20:57.065Z,0.63
2022-09-01T13:23:25.856Z,0.90
2022-09-01T13:25:55.211Z,0.80
2022-09-01T13:36:47.243Z,0.60
2022-09-01T13:39:17.159Z,0.90
2022-09-01T13:41:48.290Z,0.80
2022-09-01T13:44:17.373Z,0.70
2022-09-01T13:47:28.560Z,0.80
2022-09-01T13:49:44.045Z,0.80
2022-09-01T13:52:22.590Z,0.90
2022-09-01T13:54:50.763Z,0.70
2022-09-01T13:57:20.114Z,0.68
2022-09-01T13:59:48.150Z,0.60
2022-09-01T14:02:16.249Z,0.70
2022-09-01T14:04:44.670Z,0.80
2022-09-01T14:07:12.860Z,0.57
2022-09-01T14:09:40.884Z,0.77
2022-09-01T14:12:09.143Z,0.70
2022-09-01T14:17:26.538Z,0.90
2022-09-01T14:19:55.319Z,0.80
2022-09-01T14:22:23.412Z,0.70
2022-09-01T14:24:52.219Z,0.90
2022-09-01T14:27:20.363Z,0.70
2022-09-01T14:29:54.901Z,0.80
2022-09-01T14:32:27.086Z,0.80
2022-09-01T14:34:55.410Z,0.77
2022-09-01T14:37:24.468Z,0.68
2022-09-01T14:39:53.596Z,1.00
2022-09-01T14:42:23.938Z,0.77
2022-09-01T14:44:53.725Z,0.90
2022-09-01T14:47:24.711Z,0.75
2022-09-01T14:49:53.325Z,0.85
2022-09-01T14:52:22.285Z,0.70
2022-09-01T14:54:50.899Z,1.50
2022-09-01T14:57:36.919Z,0.80
2022-09-01T15:00:13.013Z,0.70
2022-09-01T15:02:43.994Z,0.85
2022-09-01T15:05:13.795Z,0.98
2022-09-01T15:07:43.262Z,0.70
2022-09-01T15:10:24.975Z,0.63
2022-09-01T15:12:55.768Z,0.80
2022-09-01T15:15:27.180Z,0.85
2022-09-01T15:17:56.110Z,0.90
2022-09-01T15:20:42.962Z,0.60
2022-09-01T15:23:11.554Z,0.60
2022-09-01T15:25:40.067Z,0.65
2022-09-01T15:28:08.879Z,0.70
2022-09-01T15:30:40.581Z,1.05
2022-09-01T15:33:14.703Z,0.80
2022-09-01T15:35:44.347Z,0.85
2022-09-01T15:38:17.165Z,0.68
2022-09-01T15:40:57.696Z,0.80
2022-09-01T15:43:28.331Z,0.98
2022-09-01T15:45:59.106Z,0.80
2022-09-01T15:48:29.365Z,1.00
2022-09-01T15:51:29.371Z,1.10
2022-09-01T15:54:02.069Z,1.00
2022-09-01T15:56:31.202Z,0.80
2022-09-01T15:59:02.027Z,0.73
2022-09-01T16:01:36.177Z,0.93
2022-09-01T16:04:07.882Z,1.02
2022-09-01T16:06:36.803Z,0.98
2022-09-01T16:09:06.833Z,0.80
2022-09-01T16:11:36.669Z,0.80
2022-09-01T16:14:06.207Z,0.90
2022-09-01T16:16:54.442Z,0.98
2022-09-01T16:19:34.424Z,1.10
2022-09-01T16:22:14.179Z,1.10
2022-09-01T16:24:45.687Z,0.90
2022-09-01T16:27:18.350Z,0.98
2022-09-01T16:29:51.685Z,1.00
2022-09-01T16:32:23.543Z,1.00
2022-09-01T16:34:53.347Z,0.63
2022-09-01T16:37:47.146Z,0.93
2022-09-01T16:40:34.762Z,0.90
2022-09-01T16:43:13.365Z,1.02
2022-09-01T16:45:53.953Z,1.00
2022-09-01T16:48:34.227Z,0.93
2022-09-01T16:51:15.056Z,1.00
2022-09-01T16:54:02.666Z,1.10
2022-09-01T16:56:37.318Z,0.95
2022-09-01T16:59:25.165Z,1.10
2022-09-01T17:02:07.118Z,1.10
2022-09-01T17:04:46.770Z,1.00
2022-09-01T17:07:21.113Z,1.00
2022-09-01T17:10:04.813Z,0.88
2022-09-01T17:12:42.883Z,1.10
2022-09-01T17:15:16.055Z,1.13
2022-09-01T17:17:55.839Z,1.30
2022-09-01T17:20:30.702Z,1.30
2022-09-01T17:23:08.622Z,1.27
2022-09-01T17:25:45.012Z,1.27
2022-09-01T17:28:20.814Z,1.40
2022-09-01T17:31:00.347Z,1.40
2022-09-01T17:33:44.831Z,1.45
2022-09-01T17:36:27.095Z,1.13
2022-09-01T17:39:03.700Z,1.20
2022-09-01T17:41:41.616Z,1.50
2022-09-01T17:44:21.457Z,1.60
2022-09-01T17:47:01.778Z,1.30
2022-09-01T17:49:39.676Z,1.58
2022-09-01T17:52:19.018Z,1.77
2022-09-01T17:54:59.964Z,1.50
2022-09-01T17:57:35.965Z,1.55
2022-09-01T18:00:09.245Z,1.70
2022-09-01T18:03:14.813Z,1.65
2022-09-01T18:05:46.516Z,1.75
2022-09-01T18:08:38.237Z,1.83
2022-09-01T18:11:14.170Z,1.50
2022-09-01T18:13:54.283Z,1.45
2022-09-01T18:16:29.494Z,1.90
2022-09-01T18:19:04.637Z,1.70
2022-09-01T18:21:38.181Z,1.73
2022-09-01T18:24:21.496Z,1.80
2022-09-01T18:26:52.917Z,1.80
2022-09-01T18:29:25.015Z,1.90
2022-09-01T18:32:13.083Z,1.40
2022-09-01T18:35:13.331Z,1.60
2022-09-01T18:38:01.547Z,1.60
2022-09-01T18:40:43.792Z,1.67
2022-09-01T18:43:23.690Z,1.80
2022-09-01T18:46:00.023Z,1.50
2022-09-01T18:48:50.685Z,1.92
2022-09-01T18:51:31.462Z,1.80
2022-09-01T18:54:10.369Z,2.00
2022-09-01T18:56:49.521Z,2.08
2022-09-01T19:00:18.930Z,2.00
2022-09-01T19:03:21.359Z,2.20
2022-09-01T19:06:12.624Z,1.98
2022-09-01T19:09:01.555Z,1.65
2022-09-01T19:11:49.394Z,2.08
2022-09-01T19:14:30.890Z,2.03
2022-09-01T19:17:22.280Z,2.00
2022-09-01T19:19:57.920Z,2.10
2022-09-01T19:22:40.345Z,2.30
2022-09-01T19:25:30.092Z,1.75
2022-09-01T19:28:08.163Z,2.00
2022-09-01T19:30:42.539Z,2.00
2022-09-01T19:33:17.427Z,1.90
2022-09-01T19:35:49.330Z,3.15
2022-09-01T19:38:27.562Z,2.13
2022-09-01T19:41:05.299Z,2.10
2022-09-01T19:43:40.279Z,2.20
2022-09-01T19:46:22.371Z,2.38
2022-09-01T19:49:00.183Z,2.40
2022-09-01T19:51:34.730Z,2.72
2022-09-01T19:54:10.797Z,2.70
2022-09-01T19:56:49.783Z,2.40
2022-09-01T19:59:28.152Z,2.33
2022-09-01T20:02:00.679Z,2.30
2022-09-01T20:04:42.888Z,2.38
2022-09-01T20:07:25.096Z,2.10
2022-09-01T20:10:13.603Z,2.65
2022-09-01T20:12:52.837Z,2.50
2022-09-01T20:15:33.495Z,2.53
2022-09-01T20:18:08.952Z,2.30
2022-09-01T20:20:46.970Z,2.30
2022-09-01T20:23:27.877Z,2.22
2022-09-01T20:26:04.472Z,2.47
2022-09-01T20:28:45.630Z,2.47
2022-09-01T20:31:28.219Z,2.42
2022-09-01T20:34:05.395Z,3.00
2022-09-01T20:36:42.865Z,2.80
2022-09-01T20:39:51.700Z,2.90
2022-09-01T20:42:32.176Z,3.10
2022-09-01T20:45:06.502Z,3.00
2022-09-01T20:47:36.004Z,3.10
2022-09-01T20:50:12.835Z,3.13
2022-09-01T20:52:59.741Z,3.28
2022-09-01T20:55:38.554Z,3.15
2022-09-01T20:58:16.738Z,2.50
2022-09-01T21:01:03.195Z,3.55
2022-09-01T21:03:47.239Z,3.30
2022-09-01T21:06:28.925Z,3.05
2022-09-01T21:09:10.279Z,3.20
2022-09-01T21:11:47.602Z,3.30
2022-09-01T21:14:43.795Z,3.08
2022-09-01T21:17:24.441Z,2.92
2022-09-01T21:20:09.393Z,3.25
2022-09-01T21:22:37.530Z,3.30
2022-09-01T21:25:06.858Z,3.10
2022-09-01T21:27:44.555Z,3.03
2022-09-01T21:30:15.997Z,2.90
2022-09-01T21:32:44.851Z,3.20
2022-09-01T21:35:18.246Z,2.63
2022-09-01T21:37:46.466Z,2.80
2022-09-01T21:40:16.462Z,2.90
2022-09-01T21:42:52.455Z,2.70
2022-09-01T21:45:22.307Z,2.75
2022-09-01T21:47:52.512Z,3.20
2022-09-01T21:50:25.176Z,2.80
2022-09-01T21:52:53.709Z,2.83
2022-09-01T21:55:24.904Z,2.47
2022-09-01T21:57:53.307Z,2.80
2022-09-01T22:00:25.379Z,2.55
2022-09-01T22:02:54.235Z,2.72
2022-09-01T22:05:26.022Z,2.83
2022-09-01T22:07:56.043Z,2.90
2022-09-01T22:10:29.938Z,2.70
2022-09-01T22:13:03.510Z,2.45
2022-09-01T22:15:32.642Z,2.77
2022-09-01T22:18:00.882Z,3.20
2022-09-01T22:20:31.973Z,3.80
2022-09-01T22:23:02.021Z,3.43
2022-09-01T22:25:32.694Z,2.72
2022-09-01T22:28:03.230Z,2.75
2022-09-01T22:30:31.905Z,2.70
2022-09-01T22:33:01.182Z,2.70
2022-09-01T22:35:30.844Z,3.10
2022-09-01T22:37:58.922Z,2.80
2022-09-01T22:40:27.084Z,2.60
2022-09-01T22:42:55.268Z,2.80
2022-09-01T22:45:23.457Z,2.50
2022-09-01T22:47:51.552Z,2.43
2022-09-01T22:50:19.849Z,2.77
2022-09-01T22:52:49.294Z,2.60
2022-09-01T22:55:17.881Z,3.10
2022-09-01T22:57:45.987Z,2.30
2022-09-01T23:00:15.416Z,2.30
2022-09-01T23:02:44.815Z,3.10
2022-09-01T23:05:13.165Z,2.77
2022-09-01T23:07:41.327Z,2.85
2022-09-01T23:10:12.001Z,2.60
2022-09-01T23:12:40.070Z,2.30
2022-09-01T23:15:10.448Z,2.58
2022-09-01T23:17:39.678Z,2.60
2022-09-01T23:20:13.020Z,2.38
2022-09-01T23:22:42.652Z,2.80
2022-09-01T23:25:16.319Z,2.83
2022-09-01T23:27:44.787Z,2.60
2022-09-01T23:30:16.150Z,2.20
2022-09-01T23:32:44.817Z,2.63
2022-09-01T23:35:13.985Z,2.63
2022-09-01T23:37:44.730Z,2.40
2022-09-01T23:40:14.528Z,2.87
2022-09-01T23:42:42.817Z,2.77
2022-09-01T23:45:12.585Z,2.75
2022-09-01T23:47:41.025Z,2.90
2022-09-01T23:50:10.625Z,2.70
2022-09-01T23:52:39.426Z,2.90
2022-09-01T23:55:09.443Z,2.70
2022-09-01T23:57:39.462Z,3.07
